KDLH/DLH METAR and TAF weather

Enter ICAO airport designator
Station Type Date Time Source
KDLH METAR 2019/04/18 19:55 UTC NOAA

KDLH 181955Z 35008KT 10SM BKN035 OVC055 09/03 A2986 RMK AO2 RAB07E24 SLP123 P0000 T00890033


Station Type Date Time Source
KDLH Decoded METAR 2019/04/18 19:55 UTC NOAA

Duluth, Duluth International Airport, MN, United States (KDLH) 46-50-34N 092-13-34W 435M
Apr 18, 2019 - 03:55 PM EDT / 2019.04.18 1955 UTC
Wind: from the N (350 degrees) at 9 MPH (8 KT):0
Visibility: 10 mile(s):0
Sky conditions: overcast
Precipitation last hour: A trace
Temperature: 48.0 F (8.9 C)
Dew Point: 37.9 F (3.3 C)
Relative Humidity: 67%
Pressure (altimeter): 29.86 in. Hg (1011 hPa)
ob: KDLH 181955Z 35008KT 10SM BKN035 OVC055 09/03 A2986 RMK AO2 RAB07E24 SLP123 P0000 T00890033
cycle: 20

Station Type Date Time Source
KDLH TAF 2019/04/18 20:54 UTC NOAA

TAF
AMD KDLH 181951Z 1820/1918 36010G17KT P6SM VCSH SCT015 OVC035
FM182100 36010KT P6SM BKN040
FM190100 VRB04KT P6SM SKC
FM190400 VRB03KT 5SM BR SKC
FM191400 30006KT P6SM SKC

Example: see airport list